Ryuoh Maru No.2 — JM5900 — position and weather

sailwx.info

Track history (hours):
 
Tides and Currents Weather Stations Pressure Air Temp Water Temp Dewpoint Dewpoint Depression Visibility Wind Speed Wind Dir Waves Ship Positions

Ryuoh Maru No.2

Last reported at 2016-Jun-30 18:34 UTC. Time now 2016-Jul-23 15:02 UTC.
Position N 36°14' E 140°49'.
Warning: this ship's position is 22 days out of date.

Length 80 m; draft 4.9 m.

Type: Cargo ship. MMSI: 431401218.

Date/timePositionNaut miles runAvg speedWind from/ knotsBaromVisibWave heightAir tempDewpointWater temp
2016-Jun-30 18:34N 36°14' E 140°49'1211.8
2016-Jun-30 17:33N 36°03' E 140°52'1211.9
2016-Jun-30 16:34N 35°51' E 140°54'1211.5
2016-Jun-30 15:33N 35°40' E 140°55'1211.3
2016-Jun-30 14:32N 35°31' E 140°45'1211.9
2016-Jun-30 13:32N 35°21' E 140°36'1211.6
2016-Jun-30 12:28N 35°12' E 140°27'1111.7
2016-Jun-30 11:31N 35°04' E 140°17'1212.4
2016-Jun-30 10:34N 34°57' E 140°06'1712.1
2016-Jun-30 09:12N 34°49' E 139°48'711.7
2016-Jun-30 08:33N 34°45' E 139°40'  
Track history (hours):
 
Tides and Currents Weather Stations Pressure Air Temp Water Temp Dewpoint Dewpoint Depression Visibility Wind Speed Wind Dir Waves Ship Positions

Ryuoh Maru No.2

Last reported at 2016-Jun-30 18:34 UTC. Time now 2016-Jul-23 15:02 UTC.
Position N 36°14' E 140°49'.
Warning: this ship's position is 22 days out of date.

Length 80 m; draft 4.9 m.

Type: Cargo ship. MMSI: 431401218.

Date/timePositionNaut miles runAvg speedWind from/ knotsBaromVisibWave heightAir tempDewpointWater temp
2016-Jun-30 18:34N 36°14' E 140°49'1211.8
2016-Jun-30 17:33N 36°03' E 140°52'1211.9
2016-Jun-30 16:34N 35°51' E 140°54'1211.5
2016-Jun-30 15:33N 35°40' E 140°55'1211.3
2016-Jun-30 14:32N 35°31' E 140°45'1211.9
2016-Jun-30 13:32N 35°21' E 140°36'1211.6
2016-Jun-30 12:28N 35°12' E 140°27'1111.7
2016-Jun-30 11:31N 35°04' E 140°17'1212.4
2016-Jun-30 10:34N 34°57' E 140°06'1712.1
2016-Jun-30 09:12N 34°49' E 139°48'711.7
2016-Jun-30 08:33N 34°45' E 139°40'  

Dump ship's entire track history